createdAt,value
2018-04-17T00:01:20.269Z,22.08
2018-04-17T00:03:47.712Z,25.92
2018-04-17T00:06:15.262Z,21.05
2018-04-17T00:08:42.689Z,23.40
2018-04-17T00:11:10.196Z,28.75
2018-04-17T00:13:37.632Z,23.83
2018-04-17T00:16:05.109Z,23.35
2018-04-17T00:18:32.561Z,25.12
2018-04-17T00:20:59.996Z,26.33
2018-04-17T00:23:27.437Z,30.40
2018-04-17T00:25:54.895Z,26.42
2018-04-17T00:28:22.312Z,22.77
2018-04-17T00:30:49.753Z,24.50
2018-04-17T00:33:17.201Z,23.27
2018-04-17T00:35:44.641Z,27.52
2018-04-17T00:38:12.081Z,24.05
2018-04-17T00:40:39.535Z,23.80
2018-04-17T00:43:06.971Z,27.10
2018-04-17T00:45:35.168Z,26.55
2018-04-17T00:48:02.609Z,23.95
2018-04-17T00:50:30.057Z,23.33
2018-04-17T00:52:58.270Z,30.33
2018-04-17T00:55:25.718Z,24.67
2018-04-17T00:57:53.145Z,26.20
2018-04-17T01:00:21.352Z,24.55
2018-04-17T01:02:48.778Z,27.08
2018-04-17T01:05:16.981Z,24.23
2018-04-17T01:07:44.564Z,23.77
2018-04-17T01:10:12.044Z,22.35
2018-04-17T01:12:39.492Z,24.25
2018-04-17T01:15:07.024Z,26.93
2018-04-17T01:17:34.568Z,27.50
2018-04-17T01:20:02.041Z,29.10
2018-04-17T01:22:29.509Z,24.02
2018-04-17T01:24:56.971Z,25.23
2018-04-17T01:27:25.180Z,27.33
2018-04-17T01:29:53.381Z,22.10
2018-04-17T01:32:20.817Z,27.48
2018-04-17T01:34:49.033Z,29.10
2018-04-17T01:37:17.239Z,24.03
2018-04-17T01:39:44.673Z,28.52
2018-04-17T01:42:12.105Z,26.33
2018-04-17T01:44:39.575Z,24.30
2018-04-17T01:47:07.001Z,30.50
2018-04-17T01:49:34.478Z,29.60
2018-04-17T01:52:01.910Z,29.60
2018-04-17T01:54:30.097Z,26.08
2018-04-17T01:56:57.540Z,33.10
2018-04-17T01:59:25.742Z,29.27
2018-04-17T02:01:53.172Z,27.60
2018-04-17T02:04:20.609Z,27.35
2018-04-17T02:06:48.138Z,31.73
2018-04-17T02:09:15.573Z,28.80
2018-04-17T02:11:43.029Z,25.73
2018-04-17T02:14:10.513Z,27.77
2018-04-17T02:16:37.968Z,21.93
2018-04-17T02:19:05.410Z,25.23
2018-04-17T02:21:32.837Z,29.55
2018-04-17T02:24:00.272Z,22.52
2018-04-17T02:26:28.485Z,25.35
2018-04-17T02:28:55.938Z,25.55
2018-04-17T02:31:23.363Z,27.80
2018-04-17T02:33:51.565Z,23.50
2018-04-17T02:36:18.993Z,29.08
2018-04-17T02:38:47.198Z,27.62
2018-04-17T02:41:14.617Z,23.65
2018-04-17T02:43:42.818Z,27.95
2018-04-17T02:46:10.264Z,27.20
2018-04-17T02:48:37.774Z,32.63
2018-04-17T02:51:05.211Z,31.58
2018-04-17T02:53:32.645Z,24.57
2018-04-17T02:56:00.124Z,31.60
2018-04-17T02:58:27.561Z,30.92
2018-04-17T03:00:54.989Z,37.83
2018-04-17T03:03:23.225Z,33.22
2018-04-17T03:05:50.652Z,31.27
2018-04-17T03:08:18.090Z,29.50
2018-04-17T03:10:45.583Z,28.10
2018-04-17T03:13:13.043Z,28.12
2018-04-17T03:15:40.505Z,29.02
2018-04-17T03:18:07.944Z,36.03
2018-04-17T03:20:35.413Z,28.12
2018-04-17T03:23:02.951Z,31.83
2018-04-17T03:25:30.402Z,30.02
2018-04-17T03:27:58.609Z,36.78
2018-04-17T03:30:26.037Z,30.25
2018-04-17T03:32:53.473Z,27.83
2018-04-17T03:35:20.916Z,31.20
2018-04-17T03:37:49.124Z,34.00
2018-04-17T03:40:16.545Z,32.50
2018-04-17T03:42:44.749Z,32.75
2018-04-17T03:45:12.193Z,35.65
2018-04-17T03:47:39.653Z,37.75
2018-04-17T03:50:07.297Z,28.80
2018-04-17T03:52:35.601Z,31.95
2018-04-17T03:55:03.073Z,29.00
2018-04-17T03:57:30.517Z,36.63
2018-04-17T03:59:57.943Z,34.90
2018-04-17T04:02:25.440Z,35.65
2018-04-17T04:04:52.884Z,34.70
2018-04-17T04:07:20.369Z,38.33
2018-04-17T04:09:47.927Z,39.33
2018-04-17T04:12:15.376Z,36.13
2018-04-17T04:14:42.817Z,32.70
2018-04-17T04:17:22.288Z,32.60
2018-04-17T04:20:02.625Z,33.78
2018-04-17T04:22:42.170Z,36.45
2018-04-17T04:25:22.311Z,36.42
2018-04-17T04:27:49.773Z,33.20
2018-04-17T04:30:17.217Z,30.65
2018-04-17T04:32:44.649Z,30.17
2018-04-17T04:35:12.085Z,32.10
2018-04-17T04:37:40.293Z,31.95
2018-04-17T04:40:07.725Z,27.02
2018-04-17T04:42:36.031Z,28.75
2018-04-17T04:45:03.453Z,32.90
2018-04-17T04:47:31.653Z,31.57
2018-04-17T04:49:59.117Z,31.12
2018-04-17T04:52:26.538Z,31.45
2018-04-17T04:54:54.753Z,33.80
2018-04-17T04:57:22.208Z,32.03
2018-04-17T04:59:49.763Z,29.33
2018-04-17T05:02:17.245Z,32.08
2018-04-17T05:04:44.732Z,29.60
2018-04-17T05:07:12.235Z,32.20
2018-04-17T05:09:39.653Z,33.40
2018-04-17T05:12:07.861Z,26.87
2018-04-17T05:14:35.302Z,29.65
2018-04-17T05:17:02.733Z,34.80
2018-04-17T05:19:30.932Z,29.37
2018-04-17T05:21:58.365Z,35.70
2018-04-17T05:24:25.808Z,26.70
2018-04-17T05:26:53.263Z,32.67
2018-04-17T05:29:20.705Z,28.73
2018-04-17T05:31:48.155Z,28.73
2018-04-17T05:34:15.723Z,30.55
2018-04-17T05:36:43.130Z,30.60
2018-04-17T05:39:10.556Z,31.30
2018-04-17T05:41:38.002Z,29.50
2018-04-17T05:44:05.497Z,29.48
2018-04-17T05:46:33.675Z,29.27
2018-04-17T05:49:01.124Z,26.92
2018-04-17T05:51:29.426Z,26.27
2018-04-17T05:53:56.856Z,26.85
2018-04-17T05:56:25.158Z,25.23
2018-04-17T05:58:52.576Z,26.70
2018-04-17T06:01:20.891Z,29.80
2018-04-17T06:03:48.338Z,26.25
2018-04-17T06:06:15.768Z,27.27
2018-04-17T06:08:43.981Z,26.10
2018-04-17T06:11:11.483Z,34.40
2018-04-17T06:13:38.933Z,26.37
2018-04-17T06:16:06.377Z,29.27
2018-04-17T06:18:34.581Z,23.90
2018-04-17T06:21:02.910Z,26.08
2018-04-17T06:23:30.343Z,27.87
2018-04-17T06:25:57.785Z,23.60
2018-04-17T06:28:26.016Z,25.10
2018-04-17T06:30:53.493Z,24.50
2018-04-17T06:33:21.006Z,25.80
2018-04-17T06:35:48.461Z,24.55
2018-04-17T06:38:15.885Z,22.60
2018-04-17T06:40:44.106Z,21.67
2018-04-17T06:43:11.541Z,22.60
2018-04-17T06:45:39.006Z,23.60
2018-04-17T06:48:06.428Z,24.40
2018-04-17T06:50:34.738Z,25.15
2018-04-17T06:53:02.169Z,21.75
2018-04-17T06:55:30.475Z,22.80
2018-04-17T06:57:57.939Z,20.05
2018-04-17T07:00:25.373Z,18.80
2018-04-17T07:02:52.842Z,18.92
2018-04-17T07:05:20.305Z,13.50
2018-04-17T07:07:48.473Z,15.65
2018-04-17T07:10:15.930Z,19.95
2018-04-17T07:12:43.386Z,16.37
2018-04-17T07:15:10.816Z,19.25
2018-04-17T07:17:38.260Z,16.27
2018-04-17T07:20:05.713Z,16.77
2018-04-17T07:22:33.967Z,15.55
2018-04-17T07:25:01.430Z,18.35
2018-04-17T07:27:28.948Z,15.07
2018-04-17T07:29:56.465Z,17.35
2018-04-17T07:32:24.692Z,19.37
2018-04-17T07:34:52.133Z,15.23
2018-04-17T07:37:19.617Z,14.38
2018-04-17T07:39:47.149Z,14.48
2018-04-17T07:42:14.642Z,11.70
2018-04-17T07:44:42.076Z,16.40
2018-04-17T07:50:06.823Z,13.05
2018-04-17T07:52:34.306Z,13.95
2018-04-17T07:55:02.515Z,13.50
2018-04-17T07:57:29.967Z,13.43
2018-04-17T07:59:57.412Z,13.60
2018-04-17T08:02:24.889Z,11.20
2018-04-17T08:04:52.340Z,14.00
2018-04-17T08:07:19.800Z,12.98
2018-04-17T08:09:47.245Z,13.50
2018-04-17T08:12:14.705Z,10.75
2018-04-17T08:14:42.141Z,10.80
2018-04-17T08:17:09.601Z,12.20
2018-04-17T08:19:37.037Z,12.63
2018-04-17T08:22:05.237Z,10.13
2018-04-17T08:24:32.677Z,11.57
2018-04-17T08:27:00.181Z,11.70
2018-04-17T08:29:27.630Z,13.15
2018-04-17T08:31:55.099Z,11.48
2018-04-17T08:34:22.544Z,11.98
2018-04-17T08:36:50.043Z,10.38
2018-04-17T08:39:17.425Z,13.00
2018-04-17T08:41:44.895Z,12.20
2018-04-17T08:44:12.341Z,13.52
2018-04-17T08:46:39.812Z,9.45
2018-04-17T08:49:07.266Z,10.57
2018-04-17T08:51:35.367Z,12.60
2018-04-17T08:54:02.822Z,10.32
2018-04-17T08:56:30.276Z,7.30
2018-04-17T08:58:57.700Z,8.90
2018-04-17T09:01:25.144Z,9.35
2018-04-17T09:03:52.579Z,12.68
2018-04-17T09:06:20.803Z,8.25
2018-04-17T09:08:48.260Z,10.18
2018-04-17T09:11:15.706Z,8.40
2018-04-17T09:13:43.267Z,11.23
2018-04-17T09:16:10.760Z,8.90
2018-04-17T09:18:38.196Z,10.75
2018-04-17T09:21:05.650Z,11.38
2018-04-17T09:23:33.077Z,10.10
2018-04-17T09:26:00.541Z,10.63
2018-04-17T09:28:27.982Z,10.70
2018-04-17T09:30:55.422Z,11.60
2018-04-17T09:33:23.618Z,9.63
2018-04-17T09:35:51.054Z,12.05
2018-04-17T09:38:19.257Z,13.65
2018-04-17T09:40:46.696Z,9.80
2018-04-17T09:43:14.937Z,11.40
2018-04-17T09:45:42.384Z,10.43
2018-04-17T09:48:09.823Z,10.45
2018-04-17T09:50:37.627Z,12.75
2018-04-17T09:53:05.030Z,11.52
2018-04-17T09:55:32.440Z,9.65
2018-04-17T09:58:00.671Z,9.40
2018-04-17T10:00:28.095Z,9.57
2018-04-17T10:02:55.533Z,8.80
2018-04-17T10:05:23.725Z,8.82
2018-04-17T10:07:51.165Z,9.43
2018-04-17T10:10:19.379Z,9.88
2018-04-17T10:12:46.817Z,10.48
2018-04-17T10:15:14.290Z,11.45
2018-04-17T10:17:41.725Z,9.93
2018-04-17T10:20:09.920Z,10.98
2018-04-17T10:22:37.453Z,12.00
2018-04-17T10:25:04.936Z,11.00
2018-04-17T10:27:32.378Z,12.73
2018-04-17T10:29:59.813Z,8.73
2018-04-17T10:32:28.127Z,13.77
2018-04-17T10:34:55.545Z,13.20
2018-04-17T10:37:23.773Z,9.98
2018-04-17T10:39:51.211Z,11.90
2018-04-17T10:42:18.686Z,10.98
2018-04-17T10:44:46.140Z,10.40
2018-04-17T10:47:13.601Z,10.35
2018-04-17T10:49:41.052Z,10.20
2018-04-17T10:52:08.493Z,10.60
2018-04-17T10:54:35.977Z,8.95
2018-04-17T10:57:03.515Z,10.32
2018-04-17T10:59:30.962Z,11.25
2018-04-17T11:01:58.438Z,8.68
2018-04-17T11:04:25.877Z,13.00
2018-04-17T11:06:53.325Z,11.97
2018-04-17T11:09:20.810Z,10.00
2018-04-17T11:11:48.267Z,11.73
2018-04-17T11:14:15.701Z,11.30
2018-04-17T11:16:43.144Z,9.75
2018-04-17T11:19:10.585Z,12.43
2018-04-17T11:21:38.824Z,14.20
2018-04-17T11:24:06.245Z,11.50
2018-04-17T11:26:33.676Z,8.23
2018-04-17T11:29:01.166Z,9.18
2018-04-17T11:31:29.329Z,9.40
2018-04-17T11:33:56.791Z,10.48
2018-04-17T11:36:24.248Z,14.55
2018-04-17T11:38:51.669Z,9.30
2018-04-17T11:41:19.881Z,11.43
2018-04-17T11:43:47.320Z,12.52
2018-04-17T11:46:14.755Z,7.43
2018-04-17T11:48:43.034Z,8.93
2018-04-17T11:51:10.477Z,7.10
2018-04-17T11:53:37.896Z,7.57
2018-04-17T11:56:05.337Z,7.90
2018-04-17T11:58:32.792Z,8.65
2018-04-17T12:01:00.348Z,8.20
2018-04-17T12:03:27.826Z,9.32
2018-04-17T12:05:55.265Z,9.43
2018-04-17T12:08:22.708Z,10.20
2018-04-17T12:10:50.154Z,7.90
2018-04-17T12:13:17.592Z,8.40
2018-04-17T12:15:45.819Z,8.63
2018-04-17T12:18:13.265Z,10.25
2018-04-17T12:20:40.707Z,8.45
2018-04-17T12:23:08.153Z,9.73
2018-04-17T12:25:35.630Z,11.20
2018-04-17T12:28:03.097Z,8.00
2018-04-17T12:30:30.646Z,9.40
2018-04-17T12:32:58.079Z,7.47
2018-04-17T12:35:26.285Z,9.23
2018-04-17T12:37:53.732Z,6.87
2018-04-17T12:40:21.196Z,7.80
2018-04-17T12:42:48.744Z,8.43
2018-04-17T12:45:16.174Z,11.02
2018-04-17T12:47:43.609Z,9.25
2018-04-17T12:50:11.816Z,9.05
2018-04-17T12:52:39.290Z,9.90
2018-04-17T12:55:06.721Z,7.12
2018-04-17T12:57:34.156Z,7.83
2018-04-17T13:00:02.386Z,8.60
2018-04-17T13:02:29.831Z,7.40
2018-04-17T13:04:57.309Z,10.48
2018-04-17T13:07:24.744Z,9.73
2018-04-17T13:09:52.198Z,8.07
2018-04-17T13:12:19.625Z,8.10
2018-04-17T13:14:47.836Z,8.52
2018-04-17T13:17:15.388Z,8.30
2018-04-17T13:19:42.846Z,7.45
2018-04-17T13:22:10.312Z,8.57
2018-04-17T13:24:37.758Z,10.00
2018-04-17T13:27:05.192Z,10.98
2018-04-17T13:29:32.645Z,9.30
2018-04-17T13:32:00.853Z,8.00
2018-04-17T13:34:28.297Z,10.15
2018-04-17T13:36:55.784Z,7.62
2018-04-17T13:39:23.228Z,11.75
2018-04-17T13:41:50.669Z,8.88
2018-04-17T13:44:18.096Z,8.60
2018-04-17T13:46:45.557Z,9.75
2018-04-17T13:49:12.996Z,11.27
2018-04-17T13:51:41.210Z,9.90
2018-04-17T13:54:08.682Z,11.73
2018-04-17T13:56:36.105Z,7.43
2018-04-17T13:59:03.550Z,11.77
2018-04-17T14:01:31.857Z,11.80
2018-04-17T14:03:59.313Z,9.77
2018-04-17T14:06:26.739Z,9.43
2018-04-17T14:08:54.944Z,10.05
2018-04-17T14:11:22.386Z,9.57
2018-04-17T14:13:49.832Z,8.48
2018-04-17T14:16:18.130Z,9.77
2018-04-17T14:18:45.560Z,9.15
2018-04-17T14:21:13.000Z,11.20
2018-04-17T14:23:40.485Z,11.10
2018-04-17T14:26:07.916Z,10.43
2018-04-17T14:28:36.133Z,11.20
2018-04-17T14:31:03.569Z,12.15
2018-04-17T14:33:31.027Z,9.75
2018-04-17T14:35:59.201Z,11.93
2018-04-17T14:38:26.674Z,11.63
2018-04-17T14:40:54.111Z,12.15
2018-04-17T14:43:21.559Z,10.63
2018-04-17T14:45:49.765Z,10.10
2018-04-17T14:48:17.189Z,9.00
2018-04-17T14:50:44.644Z,13.27
2018-04-17T14:53:12.083Z,13.30
2018-04-17T14:55:40.311Z,11.40
2018-04-17T14:58:07.812Z,10.45
2018-04-17T15:00:35.218Z,11.50
2018-04-17T15:03:02.663Z,12.37
2018-04-17T15:05:30.109Z,11.90
2018-04-17T15:07:57.573Z,10.80
2018-04-17T15:10:25.023Z,10.20
2018-04-17T15:12:52.457Z,10.75
2018-04-17T15:15:20.671Z,9.48
2018-04-17T15:17:48.085Z,10.15
2018-04-17T15:20:16.400Z,11.85
2018-04-17T15:22:43.824Z,18.85
2018-04-17T15:25:12.042Z,13.40
2018-04-17T15:27:39.587Z,12.68
2018-04-17T15:30:07.004Z,10.43
2018-04-17T15:32:35.218Z,11.05
2018-04-17T15:35:02.776Z,10.63
2018-04-17T15:37:30.192Z,10.98
2018-04-17T15:39:58.408Z,10.52
2018-04-17T15:42:25.833Z,10.73
2018-04-17T15:44:54.050Z,12.27
2018-04-17T15:47:21.500Z,11.18
2018-04-17T15:49:49.048Z,10.50
2018-04-17T15:52:16.503Z,9.73
2018-04-17T15:54:43.934Z,9.40
2018-04-17T15:57:12.153Z,10.68
2018-04-17T15:59:39.622Z,11.02
2018-04-17T16:02:07.093Z,10.95
2018-04-17T16:04:34.608Z,10.85
2018-04-17T16:07:02.066Z,11.10
2018-04-17T16:09:29.642Z,9.52
2018-04-17T16:11:57.050Z,12.23
2018-04-17T16:14:25.290Z,9.38
2018-04-17T16:16:52.717Z,9.88
2018-04-17T16:19:20.169Z,14.05
2018-04-17T16:21:47.656Z,11.98
2018-04-17T16:24:15.115Z,11.02
2018-04-17T16:26:42.564Z,12.60
2018-04-17T16:29:10.022Z,15.10
2018-04-17T16:31:37.479Z,12.65
2018-04-17T16:34:05.041Z,14.02
2018-04-17T16:36:32.501Z,10.83
2018-04-17T16:39:00.813Z,11.60
2018-04-17T16:41:29.024Z,12.05
2018-04-17T16:43:56.476Z,11.07
2018-04-17T16:46:23.912Z,11.18
2018-04-17T16:48:51.352Z,9.57
2018-04-17T16:51:20.092Z,11.12
2018-04-17T16:53:47.630Z,12.93
2018-04-17T16:56:15.125Z,10.70
2018-04-17T16:58:42.650Z,11.65
2018-04-17T17:01:10.150Z,11.30
2018-04-17T17:03:37.665Z,14.85
2018-04-17T17:06:05.118Z,10.75
2018-04-17T17:08:32.575Z,11.55
2018-04-17T17:11:00.030Z,12.02
2018-04-17T17:13:27.463Z,10.63
2018-04-17T17:15:55.672Z,17.70
2018-04-17T17:18:23.322Z,18.27
2018-04-17T17:20:50.797Z,11.85
2018-04-17T17:23:18.241Z,12.70
2018-04-17T17:25:45.680Z,12.52
2018-04-17T17:28:13.117Z,12.43
2018-04-17T17:30:41.329Z,12.68
2018-04-17T17:33:08.773Z,14.85
2018-04-17T17:35:36.231Z,12.93
2018-04-17T17:38:03.688Z,13.18
2018-04-17T17:40:31.108Z,12.77
2018-04-17T17:42:59.525Z,14.73
2018-04-17T17:45:26.972Z,11.93
2018-04-17T17:47:54.422Z,12.90
2018-04-17T17:50:21.865Z,14.60
2018-04-17T17:52:49.315Z,14.23
2018-04-17T17:55:17.625Z,16.85
2018-04-17T17:57:45.062Z,15.18
2018-04-17T18:00:13.256Z,14.05
2018-04-17T18:02:40.713Z,14.25
2018-04-17T18:05:08.156Z,18.70
2018-04-17T18:07:35.599Z,16.15
2018-04-17T18:10:03.902Z,18.00
2018-04-17T18:12:31.351Z,13.15
2018-04-17T18:14:58.816Z,15.10
2018-04-17T18:17:26.261Z,13.90
2018-04-17T18:19:53.706Z,13.65
2018-04-17T18:22:21.163Z,15.60
2018-04-17T18:24:48.743Z,21.35
2018-04-17T18:27:16.226Z,17.58
2018-04-17T18:29:43.667Z,15.67
2018-04-17T18:32:11.213Z,18.87
2018-04-17T18:34:38.668Z,18.02
2018-04-17T18:37:06.117Z,16.87
2018-04-17T18:39:33.608Z,19.87
2018-04-17T18:42:01.061Z,19.80
2018-04-17T18:44:28.518Z,18.50
2018-04-17T18:46:56.009Z,22.73
2018-04-17T18:49:23.408Z,19.92
2018-04-17T18:51:50.862Z,23.10
2018-04-17T18:54:18.292Z,22.20
2018-04-17T18:56:46.513Z,21.55
2018-04-17T18:59:14.052Z,23.20
2018-04-17T19:01:41.646Z,16.70
2018-04-17T19:04:09.200Z,20.48
2018-04-17T19:06:36.665Z,18.90
2018-04-17T19:09:04.156Z,21.30
2018-04-17T19:11:32.401Z,21.67
2018-04-17T19:13:59.873Z,25.20
2018-04-17T19:16:27.320Z,21.33
2018-04-17T19:18:56.272Z,23.20
2018-04-17T19:21:23.726Z,23.83
2018-04-17T19:23:51.179Z,26.80
2018-04-17T19:26:18.620Z,23.60
2018-04-17T19:28:46.099Z,27.30
2018-04-17T19:31:14.356Z,30.55
2018-04-17T19:33:41.790Z,24.70
2018-04-17T19:36:10.013Z,22.40
2018-04-17T19:38:37.452Z,23.40
2018-04-17T19:41:04.927Z,22.70
2018-04-17T19:43:32.410Z,24.90
2018-04-17T19:45:59.948Z,21.20
2018-04-17T19:48:27.380Z,20.42
2018-04-17T19:50:54.891Z,22.02
2018-04-17T19:53:22.325Z,22.77
2018-04-17T19:55:49.783Z,27.42
2018-04-17T19:58:17.237Z,14.97
2018-04-17T20:00:44.692Z,18.95
2018-04-17T20:03:12.197Z,12.40
2018-04-17T20:05:40.396Z,16.37
2018-04-17T20:08:07.847Z,16.12
2018-04-17T20:10:35.276Z,16.70
2018-04-17T20:13:03.517Z,15.88
2018-04-17T20:15:30.974Z,15.25
2018-04-17T20:17:58.517Z,13.40
2018-04-17T20:20:25.976Z,17.00
2018-04-17T20:22:53.452Z,12.40
2018-04-17T20:25:21.070Z,15.43
2018-04-17T20:27:48.766Z,12.27
2018-04-17T20:30:16.201Z,14.15
2018-04-17T20:32:43.644Z,13.57
2018-04-17T20:35:11.073Z,11.75
2018-04-17T20:37:38.582Z,18.95
2018-04-17T20:40:06.114Z,17.80
2018-04-17T20:42:33.570Z,16.00
2018-04-17T20:45:01.027Z,14.90
2018-04-17T20:47:28.456Z,13.57
2018-04-17T20:49:55.901Z,15.90
2018-04-17T20:52:24.148Z,14.60
2018-04-17T20:54:52.477Z,19.08
2018-04-17T20:57:19.929Z,16.23
2018-04-17T20:59:47.444Z,16.58
2018-04-17T21:02:14.887Z,14.68
2018-04-17T21:04:42.326Z,14.65
2018-04-17T21:07:09.770Z,12.57
2018-04-17T21:09:37.205Z,14.13
2018-04-17T21:12:05.400Z,14.43
2018-04-17T21:14:32.833Z,12.55
2018-04-17T21:17:00.285Z,14.68
2018-04-17T21:19:28.487Z,12.47
2018-04-17T21:21:55.937Z,14.20
2018-04-17T21:24:23.424Z,15.25
2018-04-17T21:26:50.874Z,12.05
2018-04-17T21:29:18.305Z,16.08
2018-04-17T21:31:45.744Z,13.05
2018-04-17T21:34:13.186Z,18.52
2018-04-17T21:36:41.393Z,12.40
2018-04-17T21:39:08.842Z,18.33
2018-04-17T21:41:36.341Z,16.05
2018-04-17T21:44:03.805Z,13.10
2018-04-17T21:46:31.241Z,15.43
2018-04-17T21:48:58.690Z,17.48
2018-04-17T21:51:26.124Z,16.60
2018-04-17T21:53:53.592Z,18.08
2018-04-17T21:56:21.068Z,16.58
2018-04-17T21:58:48.525Z,15.05
2018-04-17T22:01:16.063Z,15.93
2018-04-17T22:03:43.494Z,13.25
2018-04-17T22:06:11.691Z,13.27
2018-04-17T22:08:39.145Z,14.93
2018-04-17T22:11:06.584Z,13.17
2018-04-17T22:13:34.198Z,16.80
2018-04-17T22:16:01.598Z,15.85
2018-04-17T22:18:29.111Z,15.95
2018-04-17T22:20:56.561Z,14.93
2018-04-17T22:23:24.000Z,17.77
2018-04-17T22:25:51.445Z,13.57
2018-04-17T22:28:18.898Z,13.70
2018-04-17T22:30:46.332Z,16.10
2018-04-17T22:33:13.777Z,13.18
2018-04-17T22:35:41.976Z,14.52
2018-04-17T22:38:09.420Z,15.77
2018-04-17T22:40:36.857Z,16.80
2018-04-17T22:43:05.069Z,13.65
2018-04-17T22:45:32.530Z,16.00
2018-04-17T22:47:59.961Z,14.10
2018-04-17T22:50:27.392Z,13.70
2018-04-17T22:52:55.603Z,13.45
2018-04-17T22:55:23.045Z,16.60
2018-04-17T22:57:50.484Z,14.33
2018-04-17T23:00:18.687Z,14.57
2018-04-17T23:02:46.141Z,17.75
2018-04-17T23:05:13.577Z,14.43
2018-04-17T23:07:41.772Z,15.40
2018-04-17T23:10:09.212Z,13.18
2018-04-17T23:12:37.435Z,13.65
2018-04-17T23:15:04.885Z,12.95
2018-04-17T23:17:32.329Z,16.15
2018-04-17T23:19:59.805Z,15.15
2018-04-17T23:22:27.232Z,13.90
2018-04-17T23:24:54.689Z,13.85
2018-04-17T23:27:22.189Z,14.60
2018-04-17T23:29:49.711Z,14.10
2018-04-17T23:32:17.132Z,15.40
2018-04-17T23:34:45.366Z,15.75
2018-04-17T23:37:12.816Z,14.50
2018-04-17T23:39:40.265Z,15.05
2018-04-17T23:42:07.735Z,14.98
2018-04-17T23:44:35.268Z,14.65
2018-04-17T23:47:02.685Z,18.23
2018-04-17T23:49:30.901Z,15.88
2018-04-17T23:51:58.340Z,15.70
2018-04-17T23:54:25.916Z,16.90
2018-04-17T23:56:53.472Z,16.50
2018-04-17T23:59:20.898Z,18.35
